Time;durP1;ratioP1;P1;durP2;ratioP2;P2;SDS_P1;SDS_P2;PMS_P1;PMS_P2;Temp;Humidity;BMP_temperature;BMP_pressure;BME280_temperature;BME280_humidity;BME280_pressure;Samples;Min_cycle;Max_cycle;Signal;HPM_P1;HPM_P2
2022/03/20 00:00:39;;;;;;;18.73;9.75;;;3.10;99.90;;;;;;5039346;28;20218;-71
2022/03/20 00:03:09;;;;;;;12.07;9.45;;;3.10;99.90;;;;;;5038463;28;20748;-74
2022/03/20 00:05:39;;;;;;;13.35;8.55;;;3.10;99.90;;;;;;5039494;28;20209;-74
2022/03/20 00:08:09;;;;;;;12.70;9.85;;;3.10;99.90;;;;;;5038974;28;20719;-74
2022/03/20 00:10:37;;;;;;;19.05;9.98;;;3.10;99.90;;;;;;5038580;28;20876;-73
2022/03/20 00:13:08;;;;;;;14.23;9.13;;;3.00;99.90;;;;;;5039619;28;20226;-73
2022/03/20 00:15:36;;;;;;;16.77;10.05;;;3.00;99.90;;;;;;5040127;28;20201;-73
2022/03/20 00:18:06;;;;;;;22.48;10.82;;;3.00;99.90;;;;;;5040522;28;20857;-73
2022/03/20 00:20:35;;;;;;;13.35;10.18;;;3.00;99.90;;;;;;5040143;28;20935;-74
2022/03/20 00:23:09;;;;;;;13.25;10.25;;;2.90;99.90;;;;;;5039709;28;20266;-76
2022/03/20 00:25:37;;;;;;;17.45;11.43;;;2.90;99.90;;;;;;5038574;28;20787;-76
2022/03/20 00:28:07;;;;;;;16.90;11.13;;;2.90;99.90;;;;;;5038292;28;20201;-73
2022/03/20 00:30:35;;;;;;;26.05;11.27;;;2.90;99.90;;;;;;5038570;28;20229;-73
2022/03/20 00:33:03;;;;;;;19.30;11.50;;;2.90;99.90;;;;;;5038813;28;20214;-73
2022/03/20 00:35:32;;;;;;;21.45;12.93;;;2.90;99.90;;;;;;5038963;28;20867;-74
2022/03/20 00:38:04;;;;;;;21.48;12.57;;;2.80;99.90;;;;;;5038252;28;20197;-74
2022/03/20 00:40:32;;;;;;;19.88;13.80;;;2.80;99.90;;;;;;5038262;28;20910;-74
2022/03/20 00:43:00;;;;;;;21.15;11.55;;;2.80;99.90;;;;;;5037780;28;20204;-74
2022/03/20 00:45:29;;;;;;;22.77;12.38;;;2.70;99.90;;;;;;5038510;28;20212;-74
2022/03/20 00:47:57;;;;;;;19.23;12.80;;;2.60;99.90;;;;;;5037433;28;20917;-71
2022/03/20 00:50:25;;;;;;;17.50;12.55;;;2.60;99.90;;;;;;5038127;28;20670;-73
2022/03/20 00:52:53;;;;;;;23.25;14.07;;;2.60;99.90;;;;;;5038033;28;20285;-72
2022/03/20 00:55:20;;;;;;;23.17;15.32;;;2.60;99.90;;;;;;5037917;28;20672;-72
2022/03/20 00:57:48;;;;;;;27.85;14.70;;;2.60;99.90;;;;;;5037768;28;20292;-73
2022/03/20 01:00:17;;;;;;;27.35;14.70;;;2.60;99.90;;;;;;5038102;28;20222;-73
2022/03/20 01:02:47;;;;;;;23.13;14.18;;;2.60;99.90;;;;;;5037940;28;20894;-73
2022/03/20 01:05:15;;;;;;;24.15;14.38;;;2.60;99.90;;;;;;5038192;28;20220;-73
2022/03/20 01:07:44;;;;;;;26.10;15.82;;;2.60;99.90;;;;;;5038222;28;20786;-71
2022/03/20 01:10:12;;;;;;;26.73;17.25;;;2.60;99.90;;;;;;5038956;28;20296;-70
2022/03/20 01:12:41;;;;;;;30.60;15.77;;;2.60;99.90;;;;;;5038642;28;20206;-70
2022/03/20 01:15:11;;;;;;;31.10;16.83;;;2.70;99.90;;;;;;5036115;28;20260;-70
2022/03/20 01:17:39;;;;;;;28.98;16.85;;;2.70;99.90;;;;;;5038224;28;20178;-70
2022/03/20 01:20:11;;;;;;;22.88;16.23;;;2.60;99.90;;;;;;5037822;28;20225;-70
2022/03/20 01:22:40;;;;;;;24.30;15.88;;;2.60;99.90;;;;;;5037937;28;20260;-73
2022/03/20 01:25:09;;;;;;;23.48;15.45;;;2.70;99.90;;;;;;5037994;28;20387;-75
2022/03/20 01:27:38;;;;;;;24.00;15.65;;;2.70;99.90;;;;;;5040920;28;20235;-72
2022/03/20 01:30:07;;;;;;;24.02;15.77;;;2.70;99.90;;;;;;5043041;28;20221;-73
2022/03/20 01:32:35;;;;;;;20.75;14.65;;;2.70;99.90;;;;;;5042088;28;20423;-73
2022/03/20 01:35:04;;;;;;;23.27;15.95;;;2.60;99.90;;;;;;5041344;28;20230;-73
2022/03/20 01:37:33;;;;;;;24.30;16.55;;;2.70;99.90;;;;;;5041945;28;20751;-75
2022/03/20 01:40:01;;;;;;;26.27;16.08;;;2.60;99.90;;;;;;5041483;28;20244;-74
2022/03/20 01:42:29;;;;;;;20.63;15.63;;;2.60;99.90;;;;;;5041575;28;20212;-74
2022/03/20 01:44:57;;;;;;;28.17;18.45;;;2.60;99.90;;;;;;5041844;28;20204;-74
2022/03/20 01:47:25;;;;;;;20.88;14.93;;;2.60;99.90;;;;;;5042380;28;20194;-75
2022/03/20 01:49:53;;;;;;;23.45;15.55;;;2.60;99.90;;;;;;5040702;28;20807;-75
2022/03/20 01:52:25;;;;;;;23.23;15.73;;;2.60;99.90;;;;;;5041599;28;20688;-75
2022/03/20 01:54:55;;;;;;;24.63;16.35;;;2.60;99.90;;;;;;5040723;28;20279;-75
2022/03/20 01:57:23;;;;;;;21.92;15.43;;;2.60;99.90;;;;;;5041754;28;20297;-75
2022/03/20 01:59:52;;;;;;;27.75;16.15;;;2.50;99.90;;;;;;5041669;28;20228;-75
2022/03/20 02:02:22;;;;;;;29.20;17.60;;;2.50;99.90;;;;;;5041881;28;20288;-76
2022/03/20 02:04:50;;;;;;;27.80;16.33;;;2.50;99.90;;;;;;5043484;28;20209;-76
2022/03/20 02:07:21;;;;;;;27.08;17.20;;;2.40;99.90;;;;;;5045305;28;20241;-74
2022/03/20 02:09:49;;;;;;;22.73;15.63;;;2.50;99.90;;;;;;5043815;28;20249;-76
2022/03/20 02:12:19;;;;;;;22.92;16.15;;;2.50;99.90;;;;;;5044675;28;20803;-76
2022/03/20 02:14:47;;;;;;;23.63;15.93;;;2.50;99.90;;;;;;5044494;28;20230;-77
2022/03/20 02:17:15;;;;;;;21.50;15.80;;;2.50;99.90;;;;;;5043928;28;20197;-77
2022/03/20 02:19:44;;;;;;;25.08;16.30;;;2.50;99.90;;;;;;5042208;28;20232;-77
2022/03/20 02:22:13;;;;;;;25.42;16.25;;;2.50;99.90;;;;;;5044245;28;20293;-77
2022/03/20 02:24:44;;;;;;;28.25;15.75;;;2.50;99.90;;;;;;5043801;28;20945;-76
2022/03/20 02:27:15;;;;;;;22.65;16.20;;;2.50;99.90;;;;;;5042318;28;20198;-75
2022/03/20 02:29:44;;;;;;;25.50;17.10;;;2.40;99.90;;;;;;5042087;28;20225;-74
2022/03/20 02:32:15;;;;;;;25.70;17.17;;;2.40;99.90;;;;;;5041213;28;20208;-73
2022/03/20 02:34:47;;;;;;;22.95;17.50;;;2.40;99.90;;;;;;5041255;28;20257;-74
2022/03/20 02:37:19;;;;;;;23.35;15.82;;;2.30;99.90;;;;;;5040892;28;20209;-72
2022/03/20 02:39:47;;;;;;;22.48;15.05;;;2.30;99.90;;;;;;5040305;28;20291;-72
2022/03/20 02:42:16;;;;;;;25.75;16.10;;;2.20;99.90;;;;;;5040704;28;20795;-72
2022/03/20 02:44:58;;;;;;;24.42;15.55;;;2.30;99.90;;;;;;5041259;28;20201;-72
2022/03/20 02:47:29;;;;;;;29.92;16.90;;;2.30;99.90;;;;;;5040634;28;20206;-75
2022/03/20 02:49:58;;;;;;;24.52;16.17;;;2.30;99.90;;;;;;5040841;28;20264;-75
2022/03/20 02:52:29;;;;;;;27.00;17.65;;;2.20;99.90;;;;;;5042287;28;20247;-74
2022/03/20 02:55:01;;;;;;;24.20;17.02;;;2.30;99.90;;;;;;5041706;28;20304;-73
2022/03/20 02:57:30;;;;;;;29.27;18.15;;;2.20;99.90;;;;;;5041908;28;20213;-73
2022/03/20 03:00:00;;;;;;;28.25;17.52;;;2.20;99.90;;;;;;5041610;28;20228;-74
2022/03/20 03:02:30;;;;;;;25.05;16.98;;;2.20;99.90;;;;;;5041276;28;20205;-74
2022/03/20 03:04:59;;;;;;;22.83;15.55;;;2.20;99.90;;;;;;5041419;28;20213;-74
2022/03/20 03:07:28;;;;;;;25.05;16.20;;;2.20;99.90;;;;;;5040521;28;20205;-72
2022/03/20 03:12:43;;;;;;;25.75;16.05;;;2.20;99.90;;;;;;5039800;28;20201;-73
2022/03/20 03:15:19;;;;;;;24.85;15.45;;;2.20;99.90;;;;;;5040244;28;20257;-74
2022/03/20 03:17:47;;;;;;;25.77;16.77;;;2.20;99.90;;;;;;5040525;28;20229;-74
2022/03/20 03:20:17;;;;;;;27.88;15.85;;;2.20;99.90;;;;;;5040193;28;20301;-74
2022/03/20 03:22:46;;;;;;;30.75;18.17;;;2.20;99.90;;;;;;5040711;28;20706;-75
2022/03/20 03:25:14;;;;;;;25.45;16.55;;;2.20;99.90;;;;;;5040387;28;20202;-75
2022/03/20 03:27:42;;;;;;;23.92;16.83;;;2.20;99.90;;;;;;5041338;28;20741;-75
2022/03/20 03:30:12;;;;;;;30.15;17.17;;;2.20;99.90;;;;;;5041053;28;20228;-75
2022/03/20 03:32:41;;;;;;;23.65;16.17;;;2.10;99.90;;;;;;5040534;28;20201;-75
2022/03/20 03:37:56;;;;;;;22.42;16.40;;;2.20;99.90;;;;;;5040078;28;20209;-76
2022/03/20 03:40:24;;;;;;;30.67;16.83;;;2.10;99.90;;;;;;5039565;28;20233;-75
2022/03/20 03:42:53;;;;;;;26.00;17.60;;;2.10;99.90;;;;;;5039466;28;20233;-74
2022/03/20 03:45:22;;;;;;;25.05;16.60;;;2.00;99.90;;;;;;5039195;28;20240;-74
2022/03/20 03:47:51;;;;;;;24.55;15.90;;;2.00;99.90;;;;;;5039417;28;20808;-75
2022/03/20 03:50:20;;;;;;;30.00;17.48;;;2.00;99.90;;;;;;5038617;28;20312;-74
2022/03/20 03:52:48;;;;;;;23.08;15.48;;;2.00;99.90;;;;;;5040062;28;20293;-75
2022/03/20 03:55:18;;;;;;;27.25;16.80;;;2.00;99.90;;;;;;5040758;28;20218;-74
2022/03/20 03:57:47;;;;;;;27.52;17.33;;;2.00;99.90;;;;;;5038843;28;20236;-74
2022/03/20 04:00:16;;;;;;;25.42;16.58;;;1.90;99.90;;;;;;5038913;28;20917;-73
2022/03/20 04:02:47;;;;;;;26.30;17.52;;;2.00;99.90;;;;;;5038799;28;20193;-74
2022/03/20 04:05:17;;;;;;;26.38;17.00;;;1.90;99.90;;;;;;5037998;28;20234;-74
2022/03/20 04:07:47;;;;;;;26.90;15.93;;;1.90;99.90;;;;;;5038866;28;20201;-73
2022/03/20 04:10:17;;;;;;;27.33;17.60;;;1.90;99.90;;;;;;5038955;28;20229;-73
2022/03/20 04:12:46;;;;;;;26.60;17.48;;;1.80;99.90;;;;;;5038329;28;20229;-73
2022/03/20 04:15:16;;;;;;;26.23;17.85;;;1.80;99.90;;;;;;5037762;28;20728;-74
2022/03/20 04:17:44;;;;;;;21.48;17.00;;;1.80;99.90;;;;;;5038271;28;20240;-72
2022/03/20 04:20:13;;;;;;;32.90;20.27;;;1.80;99.90;;;;;;5037870;28;20305;-72
2022/03/20 04:23:42;;;;;;;29.15;19.65;;;1.80;99.90;;;;;;5039799;28;20305;-72
2022/03/20 04:25:34;;;;;;;29.67;18.20;;;1.80;99.90;;;;;;5038299;28;20936;-73
2022/03/20 04:28:02;;;;;;;27.52;17.27;;;1.80;99.90;;;;;;5038418;28;20716;-72
2022/03/20 04:30:33;;;;;;;27.85;16.83;;;1.80;99.90;;;;;;5037777;28;20221;-73
2022/03/20 04:33:02;;;;;;;25.77;18.48;;;1.80;99.90;;;;;;5037590;28;20890;-71
2022/03/20 04:35:30;;;;;;;34.70;18.75;;;1.80;99.90;;;;;;5038133;28;20206;-73
2022/03/20 04:38:02;;;;;;;29.05;19.08;;;1.80;99.90;;;;;;5020109;28;20187;-71
2022/03/20 04:40:30;;;;;;;26.40;17.15;;;1.70;99.90;;;;;;5018301;28;20249;-72
2022/03/20 04:42:59;;;;;;;26.75;18.20;;;1.80;99.90;;;;;;5018107;28;20213;-72
2022/03/20 04:45:27;;;;;;;29.35;16.88;;;1.70;99.90;;;;;;5018384;28;20373;-73
2022/03/20 04:59:00;;;;;;;23.10;16.48;;;1.60;99.90;;;;;;5038025;28;20668;-72
2022/03/20 05:01:27;;;;;;;27.33;18.73;;;1.60;99.90;;;;;;5039300;28;20281;-72
2022/03/20 05:03:55;;;;;;;27.65;18.42;;;1.60;99.90;;;;;;5041705;28;20202;-72
2022/03/20 05:06:23;;;;;;;24.85;17.15;;;1.60;99.90;;;;;;5041537;28;20285;-72
2022/03/20 05:08:51;;;;;;;27.02;17.70;;;1.60;99.90;;;;;;5042452;28;20210;-72
2022/03/20 05:14:06;;;;;;;25.70;17.42;;;1.60;99.90;;;;;;5041465;28;20808;-73
2022/03/20 05:16:34;;;;;;;33.50;20.05;;;1.60;99.90;;;;;;5042505;28;20221;-72
2022/03/20 05:19:02;;;;;;;29.17;19.35;;;1.60;99.90;;;;;;5042175;28;20201;-72
2022/03/20 05:21:30;;;;;;;31.02;18.17;;;1.60;99.90;;;;;;5042651;28;20870;-71
2022/03/20 05:23:58;;;;;;;24.80;17.63;;;1.60;99.90;;;;;;5041722;28;20758;-71
2022/03/20 05:26:28;;;;;;;25.05;17.35;;;1.60;99.90;;;;;;5042288;28;20200;-71
2022/03/20 05:28:56;;;;;;;21.80;16.13;;;1.60;99.90;;;;;;5043026;28;20232;-71
2022/03/20 05:31:25;;;;;;;30.45;17.48;;;1.60;99.90;;;;;;5043360;28;20224;-71
2022/03/20 05:33:53;;;;;;;29.95;18.55;;;1.50;99.90;;;;;;5043500;28;20210;-71
2022/03/20 05:36:21;;;;;;;31.48;16.35;;;1.50;99.90;;;;;;5042316;28;20231;-71
2022/03/20 05:38:48;;;;;;;25.30;17.50;;;1.50;99.90;;;;;;5041231;28;20205;-74
2022/03/20 05:44:02;;;;;;;22.20;15.93;;;1.50;99.90;;;;;;5025575;28;20198;-72
2022/03/20 05:46:31;;;;;;;28.13;17.40;;;1.60;99.90;;;;;;5020936;28;20198;-72
2022/03/20 05:48:59;;;;;;;24.63;16.50;;;1.50;99.90;;;;;;5021499;28;20207;-72
2022/03/20 05:51:27;;;;;;;24.45;18.35;;;1.60;99.90;;;;;;5021094;28;20939;-75
2022/03/20 05:53:55;;;;;;;30.35;19.30;;;1.60;99.90;;;;;;5020866;28;20207;-74
2022/03/20 05:59:08;;;;;;;29.45;17.27;;;1.50;99.90;;;;;;5028013;28;20305;-73
2022/03/20 06:01:37;;;;;;;29.15;17.08;;;1.50;99.90;;;;;;5040973;28;20858;-74
2022/03/20 06:04:05;;;;;;;26.00;18.10;;;1.60;99.90;;;;;;5040846;28;20212;-72
2022/03/20 06:06:35;;;;;;;27.60;17.08;;;1.60;99.90;;;;;;5040254;28;20197;-73
2022/03/20 06:09:04;;;;;;;30.33;18.83;;;1.60;99.90;;;;;;5040388;28;20206;-70
2022/03/20 06:11:32;;;;;;;27.23;17.35;;;1.50;99.90;;;;;;5041276;28;20213;-68
2022/03/20 06:14:00;;;;;;;30.48;19.17;;;1.60;99.90;;;;;;5041669;28;20255;-68
2022/03/20 06:16:29;;;;;;;24.73;17.02;;;1.60;99.90;;;;;;5041114;28;20300;-68
2022/03/20 06:18:58;;;;;;;26.15;17.75;;;1.70;99.90;;;;;;5042515;28;20212;-67
2022/03/20 06:21:26;;;;;;;22.20;16.55;;;1.70;99.90;;;;;;5041814;28;20357;-68
2022/03/20 06:23:55;;;;;;;31.27;18.88;;;1.80;99.90;;;;;;5040443;28;20284;-68
2022/03/20 06:26:23;;;;;;;26.90;17.33;;;1.80;99.90;;;;;;5040477;28;20675;-67
2022/03/20 06:28:51;;;;;;;26.33;17.17;;;1.90;99.90;;;;;;5040345;28;20288;-67
2022/03/20 06:31:20;;;;;;;24.85;17.38;;;1.90;99.90;;;;;;5039943;28;20381;-68
2022/03/20 06:33:59;;;;;;;25.30;15.95;;;2.00;99.90;;;;;;5040021;28;20201;-67
2022/03/20 06:36:28;;;;;;;24.30;17.80;;;2.00;99.90;;;;;;5039735;28;20312;-68
2022/03/20 06:38:56;;;;;;;26.63;17.00;;;2.10;99.90;;;;;;5040480;28;20779;-71
2022/03/20 06:41:24;;;;;;;25.40;17.77;;;2.20;99.90;;;;;;5039957;28;20308;-71
2022/03/20 06:43:51;;;;;;;26.02;17.10;;;2.40;99.90;;;;;;5039091;28;20740;-70
2022/03/20 06:46:20;;;;;;;24.35;16.85;;;2.50;99.90;;;;;;5039705;28;20208;-70
2022/03/20 06:48:53;;;;;;;25.45;15.88;;;2.70;99.90;;;;;;5039418;28;20202;-70
2022/03/20 06:51:23;;;;;;;25.23;17.50;;;2.80;99.90;;;;;;5040018;28;20812;-72
2022/03/20 06:53:51;;;;;;;25.58;17.13;;;3.00;99.90;;;;;;5038706;28;20267;-70
2022/03/20 06:56:19;;;;;;;25.35;16.40;;;3.00;99.90;;;;;;5026197;28;20234;-70
2022/03/20 06:58:47;;;;;;;26.80;17.35;;;3.20;99.90;;;;;;5019353;28;20226;-70
2022/03/20 07:01:16;;;;;;;22.50;16.35;;;3.20;99.90;;;;;;5021850;28;20237;-70
2022/03/20 07:03:44;;;;;;;24.00;15.10;;;3.30;99.90;;;;;;5059548;28;20254;-70
2022/03/20 07:06:12;;;;;;;21.30;16.13;;;3.40;99.90;;;;;;5044981;28;20209;-70
2022/03/20 07:08:42;;;;;;;22.50;16.10;;;3.50;99.90;;;;;;5039616;28;20202;-70
2022/03/20 07:11:10;;;;;;;21.15;15.68;;;3.60;99.90;;;;;;5039007;28;20308;-71
2022/03/20 07:13:53;;;;;;;23.17;15.70;;;3.60;99.90;;;;;;5039034;28;20244;-70
2022/03/20 07:16:28;;;;;;;20.83;14.70;;;3.70;99.90;;;;;;5039419;28;20201;-70
2022/03/20 07:18:57;;;;;;;23.85;14.77;;;3.80;99.90;;;;;;5039316;28;20735;-70
2022/03/20 07:21:25;;;;;;;23.55;15.43;;;3.90;99.90;;;;;;5039411;28;20222;-71
2022/03/20 07:23:54;;;;;;;24.75;13.63;;;3.90;99.90;;;;;;5038516;28;20209;-71
2022/03/20 07:31:54;;;;;;;19.60;13.80;;;4.20;99.90;;;;;;5039187;28;20233;-71
2022/03/20 07:34:23;;;;;;;17.33;13.68;;;4.20;99.90;;;;;;5039167;28;20213;-71
2022/03/20 07:36:51;;;;;;;21.15;15.40;;;4.30;99.90;;;;;;5040029;28;20214;-71
2022/03/20 07:39:20;;;;;;;20.67;14.43;;;4.30;99.90;;;;;;5040349;28;20337;-71
2022/03/20 07:41:48;;;;;;;18.30;14.00;;;4.50;99.90;;;;;;5039129;28;20284;-72
2022/03/20 07:44:16;;;;;;;18.02;14.40;;;4.50;99.90;;;;;;5030520;28;20202;-72
2022/03/20 07:46:44;;;;;;;22.10;14.13;;;4.50;99.90;;;;;;5020218;28;20236;-72
2022/03/20 07:49:12;;;;;;;20.90;13.90;;;4.60;99.90;;;;;;5022054;28;20205;-71
2022/03/20 07:51:42;;;;;;;22.05;14.43;;;4.70;99.90;;;;;;5038648;28;20202;-70
2022/03/20 07:54:10;;;;;;;23.02;14.93;;;4.80;99.90;;;;;;5038696;28;20198;-70
2022/03/20 07:56:39;;;;;;;19.20;14.93;;;4.90;99.90;;;;;;5039073;28;20220;-70
2022/03/20 07:59:07;;;;;;;21.13;15.85;;;4.90;99.90;;;;;;5036669;28;20301;-70
2022/03/20 08:01:35;;;;;;;18.02;13.48;;;5.00;99.90;;;;;;5037812;28;20308;-71
2022/03/20 08:04:04;;;;;;;20.92;15.07;;;5.10;99.90;;;;;;5038811;28;20332;-68
2022/03/20 08:06:32;;;;;;;19.90;14.93;;;5.10;99.90;;;;;;5039690;28;20400;-68
2022/03/20 08:09:00;;;;;;;19.67;15.48;;;5.10;99.90;;;;;;5039333;28;20202;-68
2022/03/20 08:11:28;;;;;;;19.90;14.23;;;5.10;99.90;;;;;;5041138;28;20763;-69
2022/03/20 08:13:58;;;;;;;15.85;13.40;;;5.10;99.90;;;;;;5038382;28;20201;-67
2022/03/20 08:16:27;;;;;;;20.30;15.20;;;5.20;99.90;;;;;;5036418;28;20249;-69
2022/03/20 08:18:56;;;;;;;18.35;13.80;;;5.20;99.90;;;;;;5023148;28;20279;-69
2022/03/20 08:21:24;;;;;;;19.98;14.95;;;5.30;99.90;;;;;;5030297;28;20689;-69
2022/03/20 08:23:53;;;;;;;20.08;15.55;;;5.30;99.90;;;;;;5018937;28;20230;-69
2022/03/20 08:26:21;;;;;;;19.65;13.07;;;5.40;99.90;;;;;;5031516;28;20209;-68
2022/03/20 08:28:49;;;;;;;20.50;14.60;;;5.50;99.90;;;;;;5038500;28;20178;-68
2022/03/20 08:31:18;;;;;;;19.27;14.88;;;5.60;99.90;;;;;;5034951;28;20217;-68
2022/03/20 08:33:46;;;;;;;20.05;15.20;;;5.70;99.90;;;;;;5038748;28;20253;-68
2022/03/20 08:36:14;;;;;;;19.08;15.27;;;5.70;99.90;;;;;;5040072;28;20267;-68
2022/03/20 08:38:43;;;;;;;19.50;13.40;;;5.80;99.90;;;;;;5039218;28;20227;-68
2022/03/20 08:41:11;;;;;;;23.33;14.90;;;6.00;99.90;;;;;;5039032;28;20434;-69
2022/03/20 08:43:39;;;;;;;21.90;15.00;;;6.10;99.90;;;;;;5037140;28;20197;-68
2022/03/20 08:46:07;;;;;;;17.52;14.00;;;6.10;99.90;;;;;;5039327;28;20216;-68
2022/03/20 08:48:36;;;;;;;19.35;14.80;;;6.20;99.90;;;;;;5039285;28;20727;-67
2022/03/20 08:51:04;;;;;;;20.23;14.50;;;6.20;99.90;;;;;;5037840;28;20225;-68
2022/03/20 08:53:33;;;;;;;18.38;13.30;;;6.30;99.90;;;;;;5038398;28;20205;-67
2022/03/20 08:56:01;;;;;;;16.70;14.05;;;6.40;99.90;;;;;;5033033;28;20220;-69
2022/03/20 08:58:29;;;;;;;20.20;15.48;;;6.40;99.90;;;;;;5037812;28;20229;-69
2022/03/20 09:00:57;;;;;;;17.35;13.15;;;6.40;99.90;;;;;;5037989;28;20317;-68
2022/03/20 09:03:25;;;;;;;19.73;14.13;;;6.60;99.90;;;;;;5037307;28;20237;-69
2022/03/20 09:05:55;;;;;;;19.55;13.57;;;6.70;99.90;;;;;;5038209;28;20217;-69
2022/03/20 09:08:23;;;;;;;17.50;15.35;;;6.70;99.90;;;;;;5036384;28;20288;-68
2022/03/20 09:10:51;;;;;;;20.38;13.57;;;6.80;99.90;;;;;;5036104;28;20221;-68
2022/03/20 09:13:19;;;;;;;18.73;13.90;;;6.90;99.90;;;;;;5036959;28;20241;-67
2022/03/20 09:18:58;;;;;;;19.65;13.45;;;7.00;99.90;;;;;;5030554;28;20890;-69
2022/03/20 09:21:23;;;;;;;19.83;13.35;;;7.10;99.90;;;;;;5018043;28;20221;-67
2022/03/20 09:23:51;;;;;;;18.23;14.23;;;7.10;99.90;;;;;;5018094;28;20292;-69
2022/03/20 09:26:19;;;;;;;19.98;15.77;;;7.20;99.90;;;;;;5017948;28;20293;-69
2022/03/20 09:28:47;;;;;;;21.05;14.35;;;7.20;99.90;;;;;;5024188;28;20792;-68
2022/03/20 09:31:16;;;;;;;21.38;13.90;;;7.20;99.90;;;;;;5037479;28;20937;-65
2022/03/20 09:33:44;;;;;;;20.33;14.68;;;7.30;99.90;;;;;;5037567;28;20260;-69
2022/03/20 09:36:12;;;;;;;16.50;14.20;;;7.40;99.90;;;;;;5037208;28;20232;-69
2022/03/20 09:38:42;;;;;;;21.38;15.85;;;7.50;99.90;;;;;;5036998;28;20805;-70
2022/03/20 09:41:11;;;;;;;18.15;14.77;;;7.60;99.90;;;;;;5033757;28;20260;-69
2022/03/20 09:43:41;;;;;;;19.23;15.00;;;7.70;99.90;;;;;;5036729;28;20835;-68
2022/03/20 09:46:16;;;;;;;18.73;15.20;;;7.70;99.90;;;;;;5037529;28;20209;-70
2022/03/20 09:48:47;;;;;;;18.83;15.20;;;7.80;99.90;;;;;;5040754;28;20213;-70
2022/03/20 09:51:15;;;;;;;22.10;16.58;;;7.80;99.90;;;;;;5040625;28;20231;-70
2022/03/20 09:53:44;;;;;;;17.27;15.10;;;7.90;99.90;;;;;;5040463;28;20205;-70
2022/03/20 09:56:13;;;;;;;29.70;17.73;;;7.90;99.90;;;;;;5040663;28;20202;-69
2022/03/20 09:58:40;;;;;;;26.42;16.40;;;8.00;99.90;;;;;;5041232;28;20225;-68
2022/03/20 10:01:10;;;;;;;21.27;17.17;;;8.00;99.90;;;;;;5041524;28;20317;-70
2022/03/20 10:03:38;;;;;;;23.15;16.73;;;8.10;99.90;;;;;;5040508;28;20198;-69
2022/03/20 10:06:16;;;;;;;21.73;16.90;;;8.10;99.80;;;;;;5037567;28;20202;-70
2022/03/20 10:09:06;;;;;;;22.38;16.08;;;8.20;99.90;;;;;;5041278;28;20204;-70
2022/03/20 10:11:35;;;;;;;19.27;15.68;;;8.30;99.70;;;;;;5040845;28;20222;-70
2022/03/20 10:14:11;;;;;;;21.10;15.98;;;8.30;99.80;;;;;;5041076;28;20270;-71
2022/03/20 10:16:40;;;;;;;21.70;16.33;;;8.50;99.80;;;;;;5040929;28;20300;-69
2022/03/20 10:19:31;;;;;;;19.58;14.93;;;8.60;99.70;;;;;;5040779;28;20340;-70
2022/03/20 10:24:17;;;;;;;20.20;15.60;;;8.80;99.00;;;;;;5118595;27;21336;-71
2022/03/20 10:26:45;;;;;;;23.52;16.52;;;8.90;99.30;;;;;;5120630;28;20233;-71
2022/03/20 10:29:17;;;;;;;21.20;16.77;;;8.90;99.00;;;;;;5118452;27;20814;-71
2022/03/20 10:31:52;;;;;;;20.92;16.30;;;9.00;99.20;;;;;;5099128;28;20206;-71
2022/03/20 10:34:21;;;;;;;34.90;17.55;;;9.10;98.50;;;;;;5097312;28;20203;-70
2022/03/20 10:36:50;;;;;;;19.40;17.17;;;9.10;98.50;;;;;;5097667;28;20231;-69
2022/03/20 10:39:22;;;;;;;23.88;17.23;;;9.20;98.50;;;;;;5097517;28;20219;-71
2022/03/20 10:41:53;;;;;;;23.70;16.65;;;9.30;98.30;;;;;;5097511;28;20294;-72
2022/03/20 10:44:31;;;;;;;20.55;16.30;;;9.30;98.00;;;;;;5097570;28;20195;-70
2022/03/20 10:47:10;;;;;;;20.08;16.77;;;9.40;98.50;;;;;;5098119;28;20674;-69
2022/03/20 10:49:39;;;;;;;23.88;16.25;;;9.40;97.90;;;;;;5098603;28;20223;-69
2022/03/20 10:52:13;;;;;;;22.67;16.50;;;9.50;97.80;;;;;;5097709;28;20294;-69
2022/03/20 10:54:45;;;;;;;25.27;17.83;;;9.60;97.80;;;;;;5098085;28;20623;-69
2022/03/20 10:57:14;;;;;;;22.17;17.23;;;9.70;97.60;;;;;;5096782;28;20736;-69
2022/03/20 10:59:44;;;;;;;20.13;16.67;;;9.80;97.30;;;;;;5097017;28;20314;-70
2022/03/20 11:02:22;;;;;;;21.38;15.70;;;9.90;96.70;;;;;;5096074;28;20298;-70
2022/03/20 11:04:51;;;;;;;23.15;16.20;;;10.00;96.30;;;;;;5096695;28;20211;-69
2022/03/20 11:07:19;;;;;;;22.27;16.55;;;10.10;96.40;;;;;;5096277;28;20828;-70
2022/03/20 11:09:50;;;;;;;21.60;17.48;;;10.10;95.80;;;;;;5096935;28;20215;-69
2022/03/20 11:12:22;;;;;;;20.05;16.25;;;10.20;95.80;;;;;;5096768;28;20291;-70
2022/03/20 11:14:51;;;;;;;19.90;16.20;;;10.30;95.20;;;;;;5096442;28;20202;-70
2022/03/20 11:17:21;;;;;;;22.65;16.40;;;10.40;95.30;;;;;;5095740;28;20583;-69
2022/03/20 11:19:53;;;;;;;21.43;17.17;;;10.40;95.60;;;;;;5096645;28;20226;-70
2022/03/20 11:22:22;;;;;;;20.17;16.25;;;10.50;95.40;;;;;;5095872;27;20450;-70
2022/03/20 11:24:53;;;;;;;23.17;17.00;;;10.60;95.00;;;;;;5096955;28;20247;-70
2022/03/20 11:27:24;;;;;;;19.40;17.17;;;10.60;95.00;;;;;;5096038;28;20512;-70
2022/03/20 11:29:57;;;;;;;19.10;16.00;;;10.60;94.30;;;;;;5096373;28;20454;-70
2022/03/20 11:32:25;;;;;;;22.13;16.45;;;10.70;94.20;;;;;;5096485;28;20186;-70
2022/03/20 11:34:54;;;;;;;18.27;15.48;;;10.70;94.10;;;;;;5086165;28;20287;-71
2022/03/20 11:37:22;;;;;;;21.30;16.90;;;10.70;94.10;;;;;;5082579;28;20754;-70
2022/03/20 11:40:12;;;;;;;18.90;16.63;;;10.80;94.30;;;;;;5082264;28;20220;-73
2022/03/20 11:42:41;;;;;;;19.03;16.83;;;10.90;94.10;;;;;;5081711;28;20460;-71
2022/03/20 11:45:12;;;;;;;20.43;16.23;;;10.90;94.30;;;;;;5082000;28;20438;-72
2022/03/20 11:47:41;;;;;;;18.50;15.27;;;11.00;93.70;;;;;;5081380;28;20705;-71
2022/03/20 11:50:13;;;;;;;19.50;15.97;;;11.10;93.50;;;;;;5082546;28;20492;-71
2022/03/20 11:53:00;;;;;;;25.43;18.00;;;11.20;93.00;;;;;;5081891;28;20419;-71
2022/03/20 11:55:38;;;;;;;21.33;16.43;;;11.20;92.60;;;;;;5082054;28;21150;-71
2022/03/20 11:58:11;;;;;;;22.03;17.07;;;11.20;92.40;;;;;;5082964;28;20521;-71
2022/03/20 12:00:42;;;;;;;24.50;17.83;;;11.20;92.70;;;;;;5087207;28;20489;-70
2022/03/20 12:03:55;;;;;;;20.40;17.00;;;11.20;92.90;;;;;;5094814;28;20497;-67
2022/03/20 12:06:37;;;;;;;19.50;16.55;;;11.20;92.90;;;;;;5093522;28;20466;-71
2022/03/20 12:09:18;;;;;;;20.10;16.43;;;11.30;92.50;;;;;;5083673;28;20204;-70
2022/03/20 12:12:07;;;;;;;18.80;16.37;;;11.40;92.20;;;;;;5081152;28;20550;-70
2022/03/20 12:14:39;;;;;;;21.98;16.08;;;11.40;92.20;;;;;;5082267;28;20467;-70
2022/03/20 12:17:08;;;;;;;23.53;16.67;;;11.40;92.40;;;;;;5082542;28;20211;-68
2022/03/20 12:19:38;;;;;;;22.17;17.37;;;11.50;92.40;;;;;;5081880;27;20561;-70
2022/03/20 12:22:10;;;;;;;26.67;17.10;;;11.60;91.90;;;;;;5082618;28;20481;-70
2022/03/20 12:24:52;;;;;;;22.10;17.60;;;11.60;91.90;;;;;;5080711;28;20494;-70
2022/03/20 12:27:40;;;;;;;19.17;16.07;;;11.70;91.60;;;;;;5082598;28;21197;-70
2022/03/20 12:30:31;;;;;;;17.43;14.90;;;11.70;90.80;;;;;;5084901;28;20462;-69
2022/03/20 12:33:01;;;;;;;16.53;14.43;;;11.70;91.00;;;;;;5081661;28;20450;-70
2022/03/20 12:35:30;;;;;;;20.00;15.77;;;11.70;91.20;;;;;;5080632;28;20471;-69
2022/03/20 12:37:59;;;;;;;21.73;16.30;;;11.70;91.20;;;;;;5102318;28;20444;-70
2022/03/20 12:40:29;;;;;;;19.97;17.53;;;11.80;91.20;;;;;;5101622;28;20461;-70
2022/03/20 12:43:20;;;;;;;18.23;15.30;;;11.80;90.80;;;;;;5102068;28;20484;-67
2022/03/20 12:45:51;;;;;;;18.53;16.33;;;11.90;90.30;;;;;;5099643;28;20449;-68
2022/03/20 12:48:21;;;;;;;22.60;17.47;;;11.90;90.90;;;;;;5100402;28;20548;-68
2022/03/20 12:50:52;;;;;;;21.50;17.60;;;12.00;89.40;;;;;;5101110;28;20473;-70
2022/03/20 12:53:21;;;;;;;18.97;15.87;;;12.00;89.50;;;;;;5101414;28;20437;-70
2022/03/20 12:55:58;;;;;;;19.13;16.33;;;11.90;89.50;;;;;;5101197;28;21077;-69
2022/03/20 12:58:31;;;;;;;22.50;16.50;;;11.90;89.50;;;;;;5101520;28;20441;-68
2022/03/20 13:00:59;;;;;;;22.17;15.83;;;11.90;88.90;;;;;;5101687;28;20540;-70
2022/03/20 13:03:31;;;;;;;17.47;15.33;;;11.90;89.00;;;;;;5101527;28;20465;-68
2022/03/20 13:06:00;;;;;;;18.10;14.90;;;12.00;88.30;;;;;;5101233;28;20421;-68
2022/03/20 13:08:32;;;;;;;21.37;14.93;;;12.00;88.00;;;;;;5101143;28;20632;-69
2022/03/20 13:11:04;;;;;;;23.00;15.07;;;12.00;87.70;;;;;;5101308;28;20476;-70
2022/03/20 13:13:34;;;;;;;21.30;16.87;;;12.00;88.30;;;;;;5100485;28;20502;-70
2022/03/20 13:16:03;;;;;;;23.47;16.70;;;12.00;88.20;;;;;;5100738;28;20602;-70
2022/03/20 13:18:33;;;;;;;20.93;15.33;;;12.00;88.30;;;;;;5101728;28;20537;-69
2022/03/20 13:21:05;;;;;;;20.77;15.57;;;12.10;88.10;;;;;;5100809;28;20469;-68
2022/03/20 13:23:34;;;;;;;18.30;16.20;;;12.20;87.10;;;;;;5100328;28;20449;-70
2022/03/20 13:26:03;;;;;;;16.47;14.43;;;12.20;86.10;;;;;;5100660;28;21155;-70